Airfield :
LOGIN :

Register | Disclaimer

   EN    FR    IT 

 










Legend :    VFR   Marginal VFR   IFR   Intensive IFR   Very Intensive IFR
Visi :
Ceiling :
>= 8 km
>= 3000ft
5 to 8 km
1000 to 3000 ft
1500m to 5 km
500 to 1000 ft
800 to 1500m
200 to 500 ft
< 800m
< 200 ft
Symbols :   Thunderstorms  Fog  Heavy snow  Heavy precipitations  Wind > 20 kt
SIGMETs :     Misc.  Thunderstorms  Icing  Turbulence  Mountain Waves  Volcanic Ashes







- Airport Elevation : 138 ft
- IATA code : BIO


LEBB - Bilbao

CURRENT METAR :
  • 162200Z 13003KT 080V160 9999 SCT025 SCT052 05/05 Q1029 TEMPO RA

EXPIRED METARs :
  • 162130Z 08003KT 9999 FEW032 SCT055 05/04 Q1029 TEMPO RA
  • 162100Z 00000KT 9999 FEW032 SCT062 06/05 Q1029 TEMPO RA
  • 162030Z 08005KT 9999 SCT032 SCT062 06/05 Q1029 TEMPO RA
  • 162000Z VRB01KT 9999 SCT032 SCT048 08/05 Q1029 TEMPO RA
  • 161930Z 00000KT 9999 SCT035 SCT058 06/05 Q1028 TEMPO RA

TAF TAF LEBB
Valid from the 16 at 18:00 until the 17 at 18:00 UTC


161700Z 1618/1718 30007KT 9999 BKN035 BKN050 TX12/1714Z TN04/1706Z
TEMPO 1618/1712 3000 RA BKN010
No reported NOTAMs for that airfield.



MET'MAP, your aeronautical weather chart ! - Copyright ORBIFLY December 2007 - Disclaimer

ORBIFLY MET'MAP TEAM :

Programming & Development : Alexandra Zaïnal
Concept & Development : Baudouin d'Aumeries
Co-Development & Prog : Marc-Olivier Méhu
Technical & hardware support : Manuel Goepfert

Contact : metmap@orbifly.com




SOURCES & CREDITS :

   NOAA